sensor_id;sensor_type;location;lat;lon;timestamp;temperature;humidity
48328;DHT22;34136;51.022;7.082;2022-07-29T00:49:21;21.30;1.00
48328;DHT22;34136;51.022;7.082;2022-07-29T00:52:08;21.30;1.00
48328;DHT22;34136;51.022;7.082;2022-07-29T00:54:56;21.30;1.00
48328;DHT22;34136;51.022;7.082;2022-07-29T00:57:43;21.30;1.00
48328;DHT22;34136;51.022;7.082;2022-07-29T01:00:30;21.30;1.00
48328;DHT22;34136;51.022;7.082;2022-07-29T01:03:17;21.30;1.00
48328;DHT22;34136;51.022;7.082;2022-07-29T01:06:03;21.20;1.00
48328;DHT22;34136;51.022;7.082;2022-07-29T01:08:51;21.10;1.00
48328;DHT22;34136;51.022;7.082;2022-07-29T01:11:38;20.90;1.00
48328;DHT22;34136;51.022;7.082;2022-07-29T01:14:25;21.00;1.00
48328;DHT22;34136;51.022;7.082;2022-07-29T01:17:20;20.90;1.00
48328;DHT22;34136;51.022;7.082;2022-07-29T01:29:45;20.90;1.00
48328;DHT22;34136;51.022;7.082;2022-07-29T01:32:35;20.80;1.00
48328;DHT22;34136;51.022;7.082;2022-07-29T01:35:30;20.60;1.00
48328;DHT22;34136;51.022;7.082;2022-07-29T01:38:21;20.60;1.00
48328;DHT22;34136;51.022;7.082;2022-07-29T01:41:15;20.50;1.00
48328;DHT22;34136;51.022;7.082;2022-07-29T01:44:16;20.50;1.00
48328;DHT22;34136;51.022;7.082;2022-07-29T01:47:14;20.40;1.00
48328;DHT22;34136;51.022;7.082;2022-07-29T01:50:07;20.40;1.00
48328;DHT22;34136;51.022;7.082;2022-07-29T01:52:58;20.40;1.00
48328;DHT22;34136;51.022;7.082;2022-07-29T01:55:45;20.30;1.00
48328;DHT22;34136;51.022;7.082;2022-07-29T01:58:33;20.20;1.00
48328;DHT22;34136;51.022;7.082;2022-07-29T02:01:21;20.00;1.00
48328;DHT22;34136;51.022;7.082;2022-07-29T02:04:10;20.10;1.00
48328;DHT22;34136;51.022;7.082;2022-07-29T02:07:01;20.10;1.00
48328;DHT22;34136;51.022;7.082;2022-07-29T02:09:50;20.20;1.00
48328;DHT22;34136;51.022;7.082;2022-07-29T02:12:38;20.10;1.00
48328;DHT22;34136;51.022;7.082;2022-07-29T02:15:27;20.00;1.00
48328;DHT22;34136;51.022;7.082;2022-07-29T02:18:17;19.80;1.00
48328;DHT22;34136;51.022;7.082;2022-07-29T02:21:03;19.70;1.00
48328;DHT22;34136;51.022;7.082;2022-07-29T02:23:51;19.80;1.00
48328;DHT22;34136;51.022;7.082;2022-07-29T02:26:40;19.70;1.00
48328;DHT22;34136;51.022;7.082;2022-07-29T02:29:28;19.70;1.00
48328;DHT22;34136;51.022;7.082;2022-07-29T02:32:16;19.90;1.00
48328;DHT22;34136;51.022;7.082;2022-07-29T02:35:04;19.90;1.00
48328;DHT22;34136;51.022;7.082;2022-07-29T02:37:52;19.80;1.00
48328;DHT22;34136;51.022;7.082;2022-07-29T02:40:39;19.80;1.00
48328;DHT22;34136;51.022;7.082;2022-07-29T02:43:29;19.80;1.00
48328;DHT22;34136;51.022;7.082;2022-07-29T02:46:26;19.70;1.00
48328;DHT22;34136;51.022;7.082;2022-07-29T02:52:20;19.30;1.00
48328;DHT22;34136;51.022;7.082;2022-07-29T02:55:17;19.40;1.00
48328;DHT22;34136;51.022;7.082;2022-07-29T02:58:19;19.40;1.00
48328;DHT22;34136;51.022;7.082;2022-07-29T03:01:12;19.40;1.00
48328;DHT22;34136;51.022;7.082;2022-07-29T03:04:03;19.40;1.00
48328;DHT22;34136;51.022;7.082;2022-07-29T03:06:51;19.40;1.00
48328;DHT22;34136;51.022;7.082;2022-07-29T03:09:40;19.50;1.00
48328;DHT22;34136;51.022;7.082;2022-07-29T03:12:26;19.50;1.00
48328;DHT22;34136;51.022;7.082;2022-07-29T03:15:14;19.20;1.00
48328;DHT22;34136;51.022;7.082;2022-07-29T03:18:02;19.00;1.00
48328;DHT22;34136;51.022;7.082;2022-07-29T03:20:48;18.90;1.00
48328;DHT22;34136;51.022;7.082;2022-07-29T03:23:35;18.90;1.00
48328;DHT22;34136;51.022;7.082;2022-07-29T03:26:21;18.80;1.00
48328;DHT22;34136;51.022;7.082;2022-07-29T03:29:08;18.80;1.00
48328;DHT22;34136;51.022;7.082;2022-07-29T03:31:54;18.90;1.00
48328;DHT22;34136;51.022;7.082;2022-07-29T03:34:40;19.00;1.00
48328;DHT22;34136;51.022;7.082;2022-07-29T03:37:35;19.10;1.00
48328;DHT22;34136;51.022;7.082;2022-07-29T03:40:49;19.10;1.00
48328;DHT22;34136;51.022;7.082;2022-07-29T03:43:39;19.00;1.00
48328;DHT22;34136;51.022;7.082;2022-07-29T03:46:28;19.00;1.00
48328;DHT22;34136;51.022;7.082;2022-07-29T03:49:16;19.00;1.00
48328;DHT22;34136;51.022;7.082;2022-07-29T03:52:04;19.00;1.00
48328;DHT22;34136;51.022;7.082;2022-07-29T03:54:51;19.00;1.00
48328;DHT22;34136;51.022;7.082;2022-07-29T03:57:38;19.00;1.00
48328;DHT22;34136;51.022;7.082;2022-07-29T04:00:26;19.00;1.00
48328;DHT22;34136;51.022;7.082;2022-07-29T04:03:13;19.00;1.00
48328;DHT22;34136;51.022;7.082;2022-07-29T04:06:01;19.00;1.00
48328;DHT22;34136;51.022;7.082;2022-07-29T04:08:48;19.00;1.00
48328;DHT22;34136;51.022;7.082;2022-07-29T04:11:35;19.00;1.00
48328;DHT22;34136;51.022;7.082;2022-07-29T04:14:22;18.90;1.00
48328;DHT22;34136;51.022;7.082;2022-07-29T04:17:08;18.80;1.00
48328;DHT22;34136;51.022;7.082;2022-07-29T04:19:55;18.70;1.00
48328;DHT22;34136;51.022;7.082;2022-07-29T04:22:42;18.70;1.00
48328;DHT22;34136;51.022;7.082;2022-07-29T04:25:28;18.70;1.00
48328;DHT22;34136;51.022;7.082;2022-07-29T04:28:14;18.70;1.00
48328;DHT22;34136;51.022;7.082;2022-07-29T04:31:00;18.70;1.00
48328;DHT22;34136;51.022;7.082;2022-07-29T04:33:46;18.70;1.00
48328;DHT22;34136;51.022;7.082;2022-07-29T04:36:33;18.60;1.00
48328;DHT22;34136;51.022;7.082;2022-07-29T04:39:19;18.60;1.00
48328;DHT22;34136;51.022;7.082;2022-07-29T04:42:05;18.60;1.00
48328;DHT22;34136;51.022;7.082;2022-07-29T04:44:51;18.60;1.00
48328;DHT22;34136;51.022;7.082;2022-07-29T04:47:38;18.60;1.00
48328;DHT22;34136;51.022;7.082;2022-07-29T04:50:24;18.70;1.00
48328;DHT22;34136;51.022;7.082;2022-07-29T04:53:10;18.70;1.00
48328;DHT22;34136;51.022;7.082;2022-07-29T04:55:57;18.60;1.00
48328;DHT22;34136;51.022;7.082;2022-07-29T04:58:43;18.80;1.00
48328;DHT22;34136;51.022;7.082;2022-07-29T05:01:29;18.80;1.00
48328;DHT22;34136;51.022;7.082;2022-07-29T05:04:15;18.80;1.00
48328;DHT22;34136;51.022;7.082;2022-07-29T05:07:02;18.90;1.00
48328;DHT22;34136;51.022;7.082;2022-07-29T05:09:48;18.80;1.00
48328;DHT22;34136;51.022;7.082;2022-07-29T05:12:34;18.90;1.00
48328;DHT22;34136;51.022;7.082;2022-07-29T05:15:20;19.00;1.00
48328;DHT22;34136;51.022;7.082;2022-07-29T05:18:06;19.20;1.00
48328;DHT22;34136;51.022;7.082;2022-07-29T05:20:53;19.30;1.00
48328;DHT22;34136;51.022;7.082;2022-07-29T05:23:39;19.30;1.00
48328;DHT22;34136;51.022;7.082;2022-07-29T05:26:25;19.30;1.00
48328;DHT22;34136;51.022;7.082;2022-07-29T05:29:11;19.30;1.00
48328;DHT22;34136;51.022;7.082;2022-07-29T05:31:58;19.50;1.00
48328;DHT22;34136;51.022;7.082;2022-07-29T05:34:44;19.50;1.00
48328;DHT22;34136;51.022;7.082;2022-07-29T05:37:30;19.50;1.00
48328;DHT22;34136;51.022;7.082;2022-07-29T05:40:16;19.50;1.00
48328;DHT22;34136;51.022;7.082;2022-07-29T05:43:02;19.60;1.00
48328;DHT22;34136;51.022;7.082;2022-07-29T05:45:48;19.60;1.00
48328;DHT22;34136;51.022;7.082;2022-07-29T05:48:35;19.70;1.00
48328;DHT22;34136;51.022;7.082;2022-07-29T05:51:21;19.60;1.00
48328;DHT22;34136;51.022;7.082;2022-07-29T05:54:07;19.60;1.00
48328;DHT22;34136;51.022;7.082;2022-07-29T05:56:53;19.70;1.00
48328;DHT22;34136;51.022;7.082;2022-07-29T05:59:39;19.80;1.00
48328;DHT22;34136;51.022;7.082;2022-07-29T06:02:26;19.90;1.00
48328;DHT22;34136;51.022;7.082;2022-07-29T06:05:12;20.10;1.00
48328;DHT22;34136;51.022;7.082;2022-07-29T06:07:58;20.20;1.00
48328;DHT22;34136;51.022;7.082;2022-07-29T06:10:45;20.30;1.00
48328;DHT22;34136;51.022;7.082;2022-07-29T06:13:32;20.40;1.00
48328;DHT22;34136;51.022;7.082;2022-07-29T06:16:18;20.50;1.00
48328;DHT22;34136;51.022;7.082;2022-07-29T06:19:05;20.50;1.00
48328;DHT22;34136;51.022;7.082;2022-07-29T06:21:52;20.50;1.00
48328;DHT22;34136;51.022;7.082;2022-07-29T06:24:38;20.50;1.00
48328;DHT22;34136;51.022;7.082;2022-07-29T06:27:24;20.60;1.00
48328;DHT22;34136;51.022;7.082;2022-07-29T06:30:11;20.80;1.00
48328;DHT22;34136;51.022;7.082;2022-07-29T06:32:57;20.80;1.00
48328;DHT22;34136;51.022;7.082;2022-07-29T06:35:43;20.90;1.00
48328;DHT22;34136;51.022;7.082;2022-07-29T06:38:29;20.90;1.00
48328;DHT22;34136;51.022;7.082;2022-07-29T06:41:15;21.10;1.00
48328;DHT22;34136;51.022;7.082;2022-07-29T06:44:02;21.30;1.00
48328;DHT22;34136;51.022;7.082;2022-07-29T06:46:48;21.50;1.00
48328;DHT22;34136;51.022;7.082;2022-07-29T06:49:35;21.50;1.00
48328;DHT22;34136;51.022;7.082;2022-07-29T06:52:21;21.60;1.00
48328;DHT22;34136;51.022;7.082;2022-07-29T06:55:07;21.70;1.00
48328;DHT22;34136;51.022;7.082;2022-07-29T06:57:53;21.80;1.00
48328;DHT22;34136;51.022;7.082;2022-07-29T07:00:39;21.80;1.00
48328;DHT22;34136;51.022;7.082;2022-07-29T07:03:26;21.80;1.00
48328;DHT22;34136;51.022;7.082;2022-07-29T07:06:12;21.60;1.00
48328;DHT22;34136;51.022;7.082;2022-07-29T07:08:58;21.60;1.00
48328;DHT22;34136;51.022;7.082;2022-07-29T07:11:44;21.50;1.00
48328;DHT22;34136;51.022;7.082;2022-07-29T07:14:30;21.40;1.00
48328;DHT22;34136;51.022;7.082;2022-07-29T07:17:16;21.30;1.00
48328;DHT22;34136;51.022;7.082;2022-07-29T07:20:03;21.10;1.00
48328;DHT22;34136;51.022;7.082;2022-07-29T07:22:49;21.10;1.00
48328;DHT22;34136;51.022;7.082;2022-07-29T07:25:36;21.20;1.00
48328;DHT22;34136;51.022;7.082;2022-07-29T07:28:22;21.10;1.00
48328;DHT22;34136;51.022;7.082;2022-07-29T07:31:08;21.20;1.00
48328;DHT22;34136;51.022;7.082;2022-07-29T07:33:55;21.00;1.00
48328;DHT22;34136;51.022;7.082;2022-07-29T07:36:41;21.30;1.00
48328;DHT22;34136;51.022;7.082;2022-07-29T07:39:26;21.50;1.00
48328;DHT22;34136;51.022;7.082;2022-07-29T07:42:12;21.70;1.00
48328;DHT22;34136;51.022;7.082;2022-07-29T07:44:59;21.80;1.00
48328;DHT22;34136;51.022;7.082;2022-07-29T07:47:45;21.90;1.00
48328;DHT22;34136;51.022;7.082;2022-07-29T07:50:31;22.00;1.00
48328;DHT22;34136;51.022;7.082;2022-07-29T07:53:18;22.10;1.00
48328;DHT22;34136;51.022;7.082;2022-07-29T07:56:04;22.40;1.00
48328;DHT22;34136;51.022;7.082;2022-07-29T07:58:50;22.40;1.00
48328;DHT22;34136;51.022;7.082;2022-07-29T08:01:36;22.20;1.00
48328;DHT22;34136;51.022;7.082;2022-07-29T08:04:23;22.10;1.00
48328;DHT22;34136;51.022;7.082;2022-07-29T08:07:09;22.10;1.00
48328;DHT22;34136;51.022;7.082;2022-07-29T08:09:55;22.30;1.00
48328;DHT22;34136;51.022;7.082;2022-07-29T08:12:41;22.40;1.00
48328;DHT22;34136;51.022;7.082;2022-07-29T08:15:27;22.40;1.00
48328;DHT22;34136;51.022;7.082;2022-07-29T08:18:13;22.50;1.00
48328;DHT22;34136;51.022;7.082;2022-07-29T08:20:59;22.40;1.00
48328;DHT22;34136;51.022;7.082;2022-07-29T08:23:46;22.20;1.00
48328;DHT22;34136;51.022;7.082;2022-07-29T08:26:31;22.20;1.00
48328;DHT22;34136;51.022;7.082;2022-07-29T08:29:17;22.20;1.00
48328;DHT22;34136;51.022;7.082;2022-07-29T08:32:04;22.20;1.00
48328;DHT22;34136;51.022;7.082;2022-07-29T08:34:51;22.10;1.00
48328;DHT22;34136;51.022;7.082;2022-07-29T08:37:37;22.10;1.00
48328;DHT22;34136;51.022;7.082;2022-07-29T08:40:23;22.10;1.00
48328;DHT22;34136;51.022;7.082;2022-07-29T08:43:09;22.10;1.00
48328;DHT22;34136;51.022;7.082;2022-07-29T08:45:56;22.00;1.00
48328;DHT22;34136;51.022;7.082;2022-07-29T08:48:42;21.90;1.00
48328;DHT22;34136;51.022;7.082;2022-07-29T08:51:28;21.80;1.00
48328;DHT22;34136;51.022;7.082;2022-07-29T08:54:17;21.70;1.00
48328;DHT22;34136;51.022;7.082;2022-07-29T08:57:04;21.70;1.00
48328;DHT22;34136;51.022;7.082;2022-07-29T08:59:52;21.70;1.00
48328;DHT22;34136;51.022;7.082;2022-07-29T09:02:41;21.80;1.00
48328;DHT22;34136;51.022;7.082;2022-07-29T09:05:29;22.00;1.00
48328;DHT22;34136;51.022;7.082;2022-07-29T09:08:16;22.10;1.00
48328;DHT22;34136;51.022;7.082;2022-07-29T09:11:03;22.10;1.00
48328;DHT22;34136;51.022;7.082;2022-07-29T09:13:49;22.20;1.00
48328;DHT22;34136;51.022;7.082;2022-07-29T09:19:32;22.50;1.00
48328;DHT22;34136;51.022;7.082;2022-07-29T09:22:28;22.60;1.00
48328;DHT22;34136;51.022;7.082;2022-07-29T09:25:36;22.60;1.00
48328;DHT22;34136;51.022;7.082;2022-07-29T09:28:22;22.80;1.00
48328;DHT22;34136;51.022;7.082;2022-07-29T09:31:08;23.00;1.00
48328;DHT22;34136;51.022;7.082;2022-07-29T09:33:54;23.20;1.00
48328;DHT22;34136;51.022;7.082;2022-07-29T09:36:45;23.60;1.00
48328;DHT22;34136;51.022;7.082;2022-07-29T09:39:34;23.70;1.00
48328;DHT22;34136;51.022;7.082;2022-07-29T09:42:29;23.70;1.00
48328;DHT22;34136;51.022;7.082;2022-07-29T09:45:33;23.90;1.00
48328;DHT22;34136;51.022;7.082;2022-07-29T09:48:24;24.00;1.00
48328;DHT22;34136;51.022;7.082;2022-07-29T09:51:18;23.90;1.00
48328;DHT22;34136;51.022;7.082;2022-07-29T09:54:24;23.90;1.00
48328;DHT22;34136;51.022;7.082;2022-07-29T09:57:23;23.90;1.00
48328;DHT22;34136;51.022;7.082;2022-07-29T10:00:12;23.90;1.00
48328;DHT22;34136;51.022;7.082;2022-07-29T10:03:00;24.00;1.00
48328;DHT22;34136;51.022;7.082;2022-07-29T10:06:12;23.90;1.00
48328;DHT22;34136;51.022;7.082;2022-07-29T10:09:11;23.90;1.00
48328;DHT22;34136;51.022;7.082;2022-07-29T10:12:12;24.00;1.00
48328;DHT22;34136;51.022;7.082;2022-07-29T10:14:58;24.40;1.00
48328;DHT22;34136;51.022;7.082;2022-07-29T10:17:46;24.50;1.00
48328;DHT22;34136;51.022;7.082;2022-07-29T10:20:34;24.40;1.00
48328;DHT22;34136;51.022;7.082;2022-07-29T10:23:20;24.20;1.00
48328;DHT22;34136;51.022;7.082;2022-07-29T10:26:07;24.30;1.00
48328;DHT22;34136;51.022;7.082;2022-07-29T10:28:53;24.20;1.00
48328;DHT22;34136;51.022;7.082;2022-07-29T12:25:46;26.30;1.00
48328;DHT22;34136;51.022;7.082;2022-07-29T12:28:38;26.50;1.00
48328;DHT22;34136;51.022;7.082;2022-07-29T12:31:25;26.50;1.00
48328;DHT22;34136;51.022;7.082;2022-07-29T12:34:12;26.40;1.00
48328;DHT22;34136;51.022;7.082;2022-07-29T12:36:59;26.40;1.00
48328;DHT22;34136;51.022;7.082;2022-07-29T12:39:45;26.40;1.00
48328;DHT22;34136;51.022;7.082;2022-07-29T12:42:31;26.60;1.00
48328;DHT22;34136;51.022;7.082;2022-07-29T12:45:28;26.70;1.00
48328;DHT22;34136;51.022;7.082;2022-07-29T12:48:15;26.70;1.00
48328;DHT22;34136;51.022;7.082;2022-07-29T12:51:04;26.70;1.00
48328;DHT22;34136;51.022;7.082;2022-07-29T12:54:10;26.50;1.00
48328;DHT22;34136;51.022;7.082;2022-07-29T12:56:59;26.70;1.00
48328;DHT22;34136;51.022;7.082;2022-07-29T13:00:08;26.60;1.00
48328;DHT22;34136;51.022;7.082;2022-07-29T13:02:57;26.80;1.00
48328;DHT22;34136;51.022;7.082;2022-07-29T13:05:44;26.90;1.00
48328;DHT22;34136;51.022;7.082;2022-07-29T13:08:30;26.90;1.00
48328;DHT22;34136;51.022;7.082;2022-07-29T13:11:40;26.80;1.00
48328;DHT22;34136;51.022;7.082;2022-07-29T13:14:37;26.70;1.00
48328;DHT22;34136;51.022;7.082;2022-07-29T13:17:23;26.60;1.00
48328;DHT22;34136;51.022;7.082;2022-07-29T13:20:11;26.70;1.00
48328;DHT22;34136;51.022;7.082;2022-07-29T13:22:59;26.70;1.00
48328;DHT22;34136;51.022;7.082;2022-07-29T13:25:45;26.80;1.00
48328;DHT22;34136;51.022;7.082;2022-07-29T13:28:31;26.80;1.00
48328;DHT22;34136;51.022;7.082;2022-07-29T13:31:17;26.70;1.00
48328;DHT22;34136;51.022;7.082;2022-07-29T13:34:03;26.70;1.00
48328;DHT22;34136;51.022;7.082;2022-07-29T13:36:49;26.90;1.00
48328;DHT22;34136;51.022;7.082;2022-07-29T13:39:35;27.00;1.00
48328;DHT22;34136;51.022;7.082;2022-07-29T13:42:23;27.10;1.00
48328;DHT22;34136;51.022;7.082;2022-07-29T13:45:10;27.10;1.00
48328;DHT22;34136;51.022;7.082;2022-07-29T13:47:56;27.10;1.00
48328;DHT22;34136;51.022;7.082;2022-07-29T13:50:42;27.00;1.00
48328;DHT22;34136;51.022;7.082;2022-07-29T13:53:28;27.00;1.00
48328;DHT22;34136;51.022;7.082;2022-07-29T13:56:14;27.20;1.00
48328;DHT22;34136;51.022;7.082;2022-07-29T13:59:00;27.40;1.00
48328;DHT22;34136;51.022;7.082;2022-07-29T14:01:46;27.40;1.00
48328;DHT22;34136;51.022;7.082;2022-07-29T14:04:32;27.30;1.00
48328;DHT22;34136;51.022;7.082;2022-07-29T14:07:18;27.10;1.00
48328;DHT22;34136;51.022;7.082;2022-07-29T14:10:05;27.20;1.00
48328;DHT22;34136;51.022;7.082;2022-07-29T14:12:51;27.40;1.00
48328;DHT22;34136;51.022;7.082;2022-07-29T14:15:37;27.50;1.00
48328;DHT22;34136;51.022;7.082;2022-07-29T14:18:24;27.60;1.00
48328;DHT22;34136;51.022;7.082;2022-07-29T14:21:10;27.60;1.00
48328;DHT22;34136;51.022;7.082;2022-07-29T14:23:56;27.50;1.00
48328;DHT22;34136;51.022;7.082;2022-07-29T14:26:42;27.50;1.00
48328;DHT22;34136;51.022;7.082;2022-07-29T14:29:28;27.60;1.00
48328;DHT22;34136;51.022;7.082;2022-07-29T14:32:14;27.40;1.00
48328;DHT22;34136;51.022;7.082;2022-07-29T14:35:00;27.40;1.00
48328;DHT22;34136;51.022;7.082;2022-07-29T14:37:46;27.40;1.00
48328;DHT22;34136;51.022;7.082;2022-07-29T14:40:33;27.40;1.00
48328;DHT22;34136;51.022;7.082;2022-07-29T14:43:19;27.40;1.00
48328;DHT22;34136;51.022;7.082;2022-07-29T14:46:05;27.20;1.00
48328;DHT22;34136;51.022;7.082;2022-07-29T14:48:51;27.30;1.00
48328;DHT22;34136;51.022;7.082;2022-07-29T14:51:38;27.30;1.00
48328;DHT22;34136;51.022;7.082;2022-07-29T14:54:24;27.40;1.00
48328;DHT22;34136;51.022;7.082;2022-07-29T14:57:10;27.40;1.00
48328;DHT22;34136;51.022;7.082;2022-07-29T14:59:56;27.50;1.00
48328;DHT22;34136;51.022;7.082;2022-07-29T15:02:42;27.40;1.00
48328;DHT22;34136;51.022;7.082;2022-07-29T15:05:29;27.10;1.00
48328;DHT22;34136;51.022;7.082;2022-07-29T15:08:15;27.20;1.00
48328;DHT22;34136;51.022;7.082;2022-07-29T15:11:01;27.50;1.00
48328;DHT22;34136;51.022;7.082;2022-07-29T15:13:47;27.50;1.00
48328;DHT22;34136;51.022;7.082;2022-07-29T15:16:36;27.20;1.00
48328;DHT22;34136;51.022;7.082;2022-07-29T15:19:23;27.10;1.00
48328;DHT22;34136;51.022;7.082;2022-07-29T15:22:09;27.30;1.00
48328;DHT22;34136;51.022;7.082;2022-07-29T15:24:55;27.40;1.00
48328;DHT22;34136;51.022;7.082;2022-07-29T15:27:41;27.40;1.00
48328;DHT22;34136;51.022;7.082;2022-07-29T15:30:28;27.20;1.00
48328;DHT22;34136;51.022;7.082;2022-07-29T15:33:14;27.30;1.00
48328;DHT22;34136;51.022;7.082;2022-07-29T15:36:00;27.30;1.00
48328;DHT22;34136;51.022;7.082;2022-07-29T15:38:46;27.20;1.00
48328;DHT22;34136;51.022;7.082;2022-07-29T15:41:33;27.30;1.00
48328;DHT22;34136;51.022;7.082;2022-07-29T15:44:20;27.50;1.00
48328;DHT22;34136;51.022;7.082;2022-07-29T15:47:06;27.10;1.00
48328;DHT22;34136;51.022;7.082;2022-07-29T15:49:52;27.10;1.00
48328;DHT22;34136;51.022;7.082;2022-07-29T15:52:38;27.00;1.00
48328;DHT22;34136;51.022;7.082;2022-07-29T15:55:24;26.90;1.00
48328;DHT22;34136;51.022;7.082;2022-07-29T15:58:10;26.90;1.00
48328;DHT22;34136;51.022;7.082;2022-07-29T16:00:56;26.80;1.00
48328;DHT22;34136;51.022;7.082;2022-07-29T16:03:42;26.90;1.00
48328;DHT22;34136;51.022;7.082;2022-07-29T16:06:28;26.90;1.00
48328;DHT22;34136;51.022;7.082;2022-07-29T16:09:16;26.80;1.00
48328;DHT22;34136;51.022;7.082;2022-07-29T16:12:03;26.80;1.00
48328;DHT22;34136;51.022;7.082;2022-07-29T16:14:49;27.00;1.00
48328;DHT22;34136;51.022;7.082;2022-07-29T16:17:35;26.80;1.00
48328;DHT22;34136;51.022;7.082;2022-07-29T16:20:22;26.70;1.00
48328;DHT22;34136;51.022;7.082;2022-07-29T16:23:08;26.70;1.00
48328;DHT22;34136;51.022;7.082;2022-07-29T16:25:54;26.80;1.00
48328;DHT22;34136;51.022;7.082;2022-07-29T16:28:40;26.70;1.00
48328;DHT22;34136;51.022;7.082;2022-07-29T16:31:26;26.60;1.00
48328;DHT22;34136;51.022;7.082;2022-07-29T16:34:13;26.50;1.00
48328;DHT22;34136;51.022;7.082;2022-07-29T16:36:59;26.40;1.00
48328;DHT22;34136;51.022;7.082;2022-07-29T16:39:45;26.40;1.00
48328;DHT22;34136;51.022;7.082;2022-07-29T16:42:32;26.30;1.00
48328;DHT22;34136;51.022;7.082;2022-07-29T16:45:18;26.10;1.00
48328;DHT22;34136;51.022;7.082;2022-07-29T16:48:04;26.00;1.00
48328;DHT22;34136;51.022;7.082;2022-07-29T16:50:51;26.00;1.00
48328;DHT22;34136;51.022;7.082;2022-07-29T16:53:37;26.00;1.00
48328;DHT22;34136;51.022;7.082;2022-07-29T16:56:22;25.90;1.00
48328;DHT22;34136;51.022;7.082;2022-07-29T16:59:09;25.80;1.00
48328;DHT22;34136;51.022;7.082;2022-07-29T17:01:55;25.70;1.00
48328;DHT22;34136;51.022;7.082;2022-07-29T17:04:41;25.90;1.00
48328;DHT22;34136;51.022;7.082;2022-07-29T17:07:27;25.70;1.00
48328;DHT22;34136;51.022;7.082;2022-07-29T17:10:13;25.70;1.00
48328;DHT22;34136;51.022;7.082;2022-07-29T17:12:59;25.70;1.00
48328;DHT22;34136;51.022;7.082;2022-07-29T17:15:44;25.60;1.00
48328;DHT22;34136;51.022;7.082;2022-07-29T17:18:30;25.60;1.00
48328;DHT22;34136;51.022;7.082;2022-07-29T17:21:16;25.60;1.00
48328;DHT22;34136;51.022;7.082;2022-07-29T17:24:03;25.50;1.00
48328;DHT22;34136;51.022;7.082;2022-07-29T17:26:49;25.50;1.00
48328;DHT22;34136;51.022;7.082;2022-07-29T17:29:35;25.30;1.00
48328;DHT22;34136;51.022;7.082;2022-07-29T17:32:21;25.30;1.00
48328;DHT22;34136;51.022;7.082;2022-07-29T17:35:08;25.20;1.00
48328;DHT22;34136;51.022;7.082;2022-07-29T17:37:54;25.20;1.00
48328;DHT22;34136;51.022;7.082;2022-07-29T17:40:40;25.30;1.00
48328;DHT22;34136;51.022;7.082;2022-07-29T17:43:27;25.40;1.00
48328;DHT22;34136;51.022;7.082;2022-07-29T17:46:13;25.20;1.00
48328;DHT22;34136;51.022;7.082;2022-07-29T17:48:59;25.10;1.00
48328;DHT22;34136;51.022;7.082;2022-07-29T17:51:45;25.20;1.00
48328;DHT22;34136;51.022;7.082;2022-07-29T17:54:32;25.20;1.00
48328;DHT22;34136;51.022;7.082;2022-07-29T17:57:18;25.10;1.00
48328;DHT22;34136;51.022;7.082;2022-07-29T18:00:06;25.00;1.00
48328;DHT22;34136;51.022;7.082;2022-07-29T18:02:52;25.10;1.00
48328;DHT22;34136;51.022;7.082;2022-07-29T18:05:38;25.10;1.00
48328;DHT22;34136;51.022;7.082;2022-07-29T18:08:24;25.30;1.00
48328;DHT22;34136;51.022;7.082;2022-07-29T18:11:10;25.40;1.00
48328;DHT22;34136;51.022;7.082;2022-07-29T18:13:56;25.20;1.00
48328;DHT22;34136;51.022;7.082;2022-07-29T18:16:42;25.10;1.00
48328;DHT22;34136;51.022;7.082;2022-07-29T18:19:28;25.20;1.00
48328;DHT22;34136;51.022;7.082;2022-07-29T18:22:14;25.10;1.00
48328;DHT22;34136;51.022;7.082;2022-07-29T18:25:02;25.00;1.00
48328;DHT22;34136;51.022;7.082;2022-07-29T18:27:49;25.00;1.00
48328;DHT22;34136;51.022;7.082;2022-07-29T18:30:35;25.00;1.00
48328;DHT22;34136;51.022;7.082;2022-07-29T18:33:21;24.90;1.00
48328;DHT22;34136;51.022;7.082;2022-07-29T18:36:07;24.80;1.00
48328;DHT22;34136;51.022;7.082;2022-07-29T18:38:53;24.70;1.00
48328;DHT22;34136;51.022;7.082;2022-07-29T18:41:39;24.80;1.00
48328;DHT22;34136;51.022;7.082;2022-07-29T18:44:25;24.80;1.00
48328;DHT22;34136;51.022;7.082;2022-07-29T18:47:12;24.80;1.00
48328;DHT22;34136;51.022;7.082;2022-07-29T18:49:58;24.70;1.00
48328;DHT22;34136;51.022;7.082;2022-07-29T21:38:35;20.90;1.00
48328;DHT22;34136;51.022;7.082;2022-07-29T21:41:21;21.00;1.00
48328;DHT22;34136;51.022;7.082;2022-07-29T21:44:10;20.90;1.00
48328;DHT22;34136;51.022;7.082;2022-07-29T21:46:56;20.90;1.00
48328;DHT22;34136;51.022;7.082;2022-07-29T21:49:42;20.70;1.00
48328;DHT22;34136;51.022;7.082;2022-07-29T21:52:29;20.50;1.00
48328;DHT22;34136;51.022;7.082;2022-07-29T21:55:15;20.50;1.00
48328;DHT22;34136;51.022;7.082;2022-07-29T21:58:01;20.40;1.00
48328;DHT22;34136;51.022;7.082;2022-07-29T22:00:47;20.50;1.00
48328;DHT22;34136;51.022;7.082;2022-07-29T22:03:33;20.50;1.00
48328;DHT22;34136;51.022;7.082;2022-07-29T22:06:19;20.50;1.00
48328;DHT22;34136;51.022;7.082;2022-07-29T22:09:06;20.50;1.00
48328;DHT22;34136;51.022;7.082;2022-07-29T22:11:53;20.40;1.00
48328;DHT22;34136;51.022;7.082;2022-07-29T22:14:39;20.20;1.00
48328;DHT22;34136;51.022;7.082;2022-07-29T22:17:25;20.10;1.00
48328;DHT22;34136;51.022;7.082;2022-07-29T22:20:11;20.10;1.00
48328;DHT22;34136;51.022;7.082;2022-07-29T22:22:58;20.00;1.00
48328;DHT22;34136;51.022;7.082;2022-07-29T22:25:44;20.10;1.00
48328;DHT22;34136;51.022;7.082;2022-07-29T22:28:30;20.20;1.00
48328;DHT22;34136;51.022;7.082;2022-07-29T22:31:16;20.00;1.00
48328;DHT22;34136;51.022;7.082;2022-07-29T22:34:02;20.00;1.00
48328;DHT22;34136;51.022;7.082;2022-07-29T22:36:49;20.00;1.00
48328;DHT22;34136;51.022;7.082;2022-07-29T22:39:35;20.10;1.00
48328;DHT22;34136;51.022;7.082;2022-07-29T22:42:21;20.20;1.00
48328;DHT22;34136;51.022;7.082;2022-07-29T22:45:08;20.30;1.00
48328;DHT22;34136;51.022;7.082;2022-07-29T22:47:55;20.30;1.00
48328;DHT22;34136;51.022;7.082;2022-07-29T22:50:41;20.30;1.00
48328;DHT22;34136;51.022;7.082;2022-07-29T22:53:27;20.30;1.00
48328;DHT22;34136;51.022;7.082;2022-07-29T22:56:13;20.20;1.00
48328;DHT22;34136;51.022;7.082;2022-07-29T22:59:00;20.20;1.00
48328;DHT22;34136;51.022;7.082;2022-07-29T23:01:46;20.20;1.00
48328;DHT22;34136;51.022;7.082;2022-07-29T23:04:32;20.20;1.00
48328;DHT22;34136;51.022;7.082;2022-07-29T23:07:18;20.00;1.00
48328;DHT22;34136;51.022;7.082;2022-07-29T23:10:05;19.90;1.40
48328;DHT22;34136;51.022;7.082;2022-07-29T23:12:52;19.70;2.30
48328;DHT22;34136;51.022;7.082;2022-07-29T23:15:39;19.70;2.30
48328;DHT22;34136;51.022;7.082;2022-07-29T23:18:25;19.80;2.30
48328;DHT22;34136;51.022;7.082;2022-07-29T23:21:11;19.70;2.50
48328;DHT22;34136;51.022;7.082;2022-07-29T23:23:57;19.70;2.40
48328;DHT22;34136;51.022;7.082;2022-07-29T23:26:43;19.70;2.30
48328;DHT22;34136;51.022;7.082;2022-07-29T23:29:33;19.80;2.30
48328;DHT22;34136;51.022;7.082;2022-07-29T23:32:22;19.60;2.90
48328;DHT22;34136;51.022;7.082;2022-07-29T23:35:09;19.50;3.60
48328;DHT22;34136;51.022;7.082;2022-07-29T23:37:54;19.50;3.60